sensor_id;sensor_type;location;lat;lon;timestamp;temperature;humidity
5578;DHT22;2811;51.900;10.734;2023-06-26T00:00:45;21.10;99.90
5578;DHT22;2811;51.900;10.734;2023-06-26T00:03:13;21.20;99.90
5578;DHT22;2811;51.900;10.734;2023-06-26T00:05:40;21.20;99.90
5578;DHT22;2811;51.900;10.734;2023-06-26T00:08:07;21.30;99.90
5578;DHT22;2811;51.900;10.734;2023-06-26T00:10:34;21.50;99.90
5578;DHT22;2811;51.900;10.734;2023-06-26T00:13:02;21.50;99.90
5578;DHT22;2811;51.900;10.734;2023-06-26T00:15:29;21.50;99.90
5578;DHT22;2811;51.900;10.734;2023-06-26T00:17:57;21.60;99.90
5578;DHT22;2811;51.900;10.734;2023-06-26T00:20:23;21.60;99.90
5578;DHT22;2811;51.900;10.734;2023-06-26T00:22:50;21.50;99.90
5578;DHT22;2811;51.900;10.734;2023-06-26T00:25:19;21.40;99.90
5578;DHT22;2811;51.900;10.734;2023-06-26T00:27:45;21.50;99.90
5578;DHT22;2811;51.900;10.734;2023-06-26T00:30:13;21.50;99.90
5578;DHT22;2811;51.900;10.734;2023-06-26T00:32:40;21.60;99.90
5578;DHT22;2811;51.900;10.734;2023-06-26T00:35:07;21.60;99.90
5578;DHT22;2811;51.900;10.734;2023-06-26T00:37:33;21.50;99.90
5578;DHT22;2811;51.900;10.734;2023-06-26T00:40:00;21.60;99.90
5578;DHT22;2811;51.900;10.734;2023-06-26T00:42:27;21.50;99.90
5578;DHT22;2811;51.900;10.734;2023-06-26T00:44:54;21.30;99.90
5578;DHT22;2811;51.900;10.734;2023-06-26T00:47:22;21.10;99.90
5578;DHT22;2811;51.900;10.734;2023-06-26T00:49:48;21.00;99.90
5578;DHT22;2811;51.900;10.734;2023-06-26T00:52:15;20.80;99.90
5578;DHT22;2811;51.900;10.734;2023-06-26T00:54:43;20.70;99.90
5578;DHT22;2811;51.900;10.734;2023-06-26T00:57:09;20.60;99.90
5578;DHT22;2811;51.900;10.734;2023-06-26T00:59:36;20.50;99.90
5578;DHT22;2811;51.900;10.734;2023-06-26T01:02:03;20.50;99.90
5578;DHT22;2811;51.900;10.734;2023-06-26T01:04:32;20.40;99.90
5578;DHT22;2811;51.900;10.734;2023-06-26T01:06:59;20.70;99.90
5578;DHT22;2811;51.900;10.734;2023-06-26T01:09:26;20.80;99.90
5578;DHT22;2811;51.900;10.734;2023-06-26T01:11:53;20.80;99.90
5578;DHT22;2811;51.900;10.734;2023-06-26T01:14:20;20.70;99.90
5578;DHT22;2811;51.900;10.734;2023-06-26T01:16:47;20.60;99.90
5578;DHT22;2811;51.900;10.734;2023-06-26T01:19:19;20.60;99.90
5578;DHT22;2811;51.900;10.734;2023-06-26T01:21:54;20.60;99.90
5578;DHT22;2811;51.900;10.734;2023-06-26T01:24:25;20.60;99.90
5578;DHT22;2811;51.900;10.734;2023-06-26T01:26:54;20.70;99.90
5578;DHT22;2811;51.900;10.734;2023-06-26T01:29:22;20.80;99.90
5578;DHT22;2811;51.900;10.734;2023-06-26T01:31:49;20.80;99.90
5578;DHT22;2811;51.900;10.734;2023-06-26T01:34:17;20.90;99.90
5578;DHT22;2811;51.900;10.734;2023-06-26T01:36:44;21.00;99.90
5578;DHT22;2811;51.900;10.734;2023-06-26T01:39:15;21.10;99.90
5578;DHT22;2811;51.900;10.734;2023-06-26T01:41:41;21.20;99.90
5578;DHT22;2811;51.900;10.734;2023-06-26T01:44:18;21.30;99.90
5578;DHT22;2811;51.900;10.734;2023-06-26T01:46:59;21.30;99.90
5578;DHT22;2811;51.900;10.734;2023-06-26T01:49:33;21.30;99.90
5578;DHT22;2811;51.900;10.734;2023-06-26T01:52:08;21.20;99.90
5578;DHT22;2811;51.900;10.734;2023-06-26T01:54:39;21.20;99.90
5578;DHT22;2811;51.900;10.734;2023-06-26T01:57:08;21.10;99.90
5578;DHT22;2811;51.900;10.734;2023-06-26T01:59:38;21.30;99.90
5578;DHT22;2811;51.900;10.734;2023-06-26T02:02:07;21.30;99.90
5578;DHT22;2811;51.900;10.734;2023-06-26T02:04:34;21.30;99.90
5578;DHT22;2811;51.900;10.734;2023-06-26T02:07:01;21.30;99.90
5578;DHT22;2811;51.900;10.734;2023-06-26T02:09:27;21.30;99.90
5578;DHT22;2811;51.900;10.734;2023-06-26T02:11:54;21.10;99.90
5578;DHT22;2811;51.900;10.734;2023-06-26T02:14:21;20.90;99.90
5578;DHT22;2811;51.900;10.734;2023-06-26T02:16:49;20.60;99.90
5578;DHT22;2811;51.900;10.734;2023-06-26T02:19:15;20.50;99.90
5578;DHT22;2811;51.900;10.734;2023-06-26T02:21:47;20.40;99.90
5578;DHT22;2811;51.900;10.734;2023-06-26T02:24:13;20.30;99.90
5578;DHT22;2811;51.900;10.734;2023-06-26T02:26:40;20.20;99.90
5578;DHT22;2811;51.900;10.734;2023-06-26T02:29:07;20.20;99.90
5578;DHT22;2811;51.900;10.734;2023-06-26T02:31:33;20.10;99.90
5578;DHT22;2811;51.900;10.734;2023-06-26T02:34:01;20.10;99.90
5578;DHT22;2811;51.900;10.734;2023-06-26T02:36:28;19.90;99.90
5578;DHT22;2811;51.900;10.734;2023-06-26T02:38:55;19.90;99.90
5578;DHT22;2811;51.900;10.734;2023-06-26T02:41:21;19.80;99.90
5578;DHT22;2811;51.900;10.734;2023-06-26T02:43:48;19.70;99.90
5578;DHT22;2811;51.900;10.734;2023-06-26T02:46:15;19.80;99.90
5578;DHT22;2811;51.900;10.734;2023-06-26T02:48:41;19.90;99.90
5578;DHT22;2811;51.900;10.734;2023-06-26T02:51:09;20.00;99.90
5578;DHT22;2811;51.900;10.734;2023-06-26T02:53:36;19.90;99.90
5578;DHT22;2811;51.900;10.734;2023-06-26T02:56:03;19.90;99.90
5578;DHT22;2811;51.900;10.734;2023-06-26T02:58:29;19.80;99.90
5578;DHT22;2811;51.900;10.734;2023-06-26T03:00:56;19.30;99.90
5578;DHT22;2811;51.900;10.734;2023-06-26T03:03:23;19.10;99.90
5578;DHT22;2811;51.900;10.734;2023-06-26T03:05:49;19.30;99.90
5578;DHT22;2811;51.900;10.734;2023-06-26T03:08:17;19.20;99.90
5578;DHT22;2811;51.900;10.734;2023-06-26T03:10:44;19.20;99.90
5578;DHT22;2811;51.900;10.734;2023-06-26T03:13:11;19.20;99.90
5578;DHT22;2811;51.900;10.734;2023-06-26T03:15:38;19.20;99.90
5578;DHT22;2811;51.900;10.734;2023-06-26T03:18:04;19.20;99.90
5578;DHT22;2811;51.900;10.734;2023-06-26T03:20:31;19.50;99.90
5578;DHT22;2811;51.900;10.734;2023-06-26T03:22:58;19.20;99.90
5578;DHT22;2811;51.900;10.734;2023-06-26T03:25:26;19.30;99.90
5578;DHT22;2811;51.900;10.734;2023-06-26T03:27:52;19.30;99.90
5578;DHT22;2811;51.900;10.734;2023-06-26T03:30:19;19.40;99.90
5578;DHT22;2811;51.900;10.734;2023-06-26T03:32:46;19.20;99.90
5578;DHT22;2811;51.900;10.734;2023-06-26T03:35:12;19.30;99.90
5578;DHT22;2811;51.900;10.734;2023-06-26T03:37:40;19.40;99.90
5578;DHT22;2811;51.900;10.734;2023-06-26T03:40:08;19.50;99.90
5578;DHT22;2811;51.900;10.734;2023-06-26T03:42:36;19.60;99.90
5578;DHT22;2811;51.900;10.734;2023-06-26T03:45:03;19.40;99.90
5578;DHT22;2811;51.900;10.734;2023-06-26T03:47:29;19.40;99.90
5578;DHT22;2811;51.900;10.734;2023-06-26T03:49:56;19.60;99.90
5578;DHT22;2811;51.900;10.734;2023-06-26T03:52:23;19.60;99.90
5578;DHT22;2811;51.900;10.734;2023-06-26T03:54:49;19.70;99.90
5578;DHT22;2811;51.900;10.734;2023-06-26T03:57:16;19.60;99.90
5578;DHT22;2811;51.900;10.734;2023-06-26T03:59:44;19.40;99.90
5578;DHT22;2811;51.900;10.734;2023-06-26T04:02:11;19.50;99.90
5578;DHT22;2811;51.900;10.734;2023-06-26T04:04:37;19.70;99.90
5578;DHT22;2811;51.900;10.734;2023-06-26T04:07:04;19.80;99.90
5578;DHT22;2811;51.900;10.734;2023-06-26T04:09:31;19.60;99.90
5578;DHT22;2811;51.900;10.734;2023-06-26T04:11:58;19.70;99.90
5578;DHT22;2811;51.900;10.734;2023-06-26T04:14:24;19.70;99.90
5578;DHT22;2811;51.900;10.734;2023-06-26T04:16:52;20.00;99.90
5578;DHT22;2811;51.900;10.734;2023-06-26T04:19:19;20.20;99.90
5578;DHT22;2811;51.900;10.734;2023-06-26T04:21:46;20.00;99.90
5578;DHT22;2811;51.900;10.734;2023-06-26T04:24:13;20.10;99.90
5578;DHT22;2811;51.900;10.734;2023-06-26T04:26:39;20.40;99.90
5578;DHT22;2811;51.900;10.734;2023-06-26T04:29:06;20.40;99.90
5578;DHT22;2811;51.900;10.734;2023-06-26T04:31:33;20.70;99.90
5578;DHT22;2811;51.900;10.734;2023-06-26T04:34:01;20.70;99.90
5578;DHT22;2811;51.900;10.734;2023-06-26T04:36:27;21.20;99.90
5578;DHT22;2811;51.900;10.734;2023-06-26T04:38:54;22.00;99.90
5578;DHT22;2811;51.900;10.734;2023-06-26T04:41:21;22.40;99.90
5578;DHT22;2811;51.900;10.734;2023-06-26T04:43:48;23.10;99.90
5578;DHT22;2811;51.900;10.734;2023-06-26T04:46:15;23.00;99.90
5578;DHT22;2811;51.900;10.734;2023-06-26T04:48:41;23.40;99.90
5578;DHT22;2811;51.900;10.734;2023-06-26T04:51:11;23.80;99.90
5578;DHT22;2811;51.900;10.734;2023-06-26T04:53:38;24.10;99.90
5578;DHT22;2811;51.900;10.734;2023-06-26T04:56:04;23.80;99.90
5578;DHT22;2811;51.900;10.734;2023-06-26T04:58:31;23.60;99.90
5578;DHT22;2811;51.900;10.734;2023-06-26T05:00:58;23.90;99.90
5578;DHT22;2811;51.900;10.734;2023-06-26T05:03:25;23.80;99.90
5578;DHT22;2811;51.900;10.734;2023-06-26T05:05:51;24.40;99.90
5578;DHT22;2811;51.900;10.734;2023-06-26T05:08:22;24.30;99.90
5578;DHT22;2811;51.900;10.734;2023-06-26T05:10:49;24.30;99.90
5578;DHT22;2811;51.900;10.734;2023-06-26T05:13:16;24.50;99.90
5578;DHT22;2811;51.900;10.734;2023-06-26T05:15:45;24.70;99.90
5578;DHT22;2811;51.900;10.734;2023-06-26T05:18:12;24.70;99.90
5578;DHT22;2811;51.900;10.734;2023-06-26T05:20:39;24.80;99.90
5578;DHT22;2811;51.900;10.734;2023-06-26T05:23:06;24.70;99.90
5578;DHT22;2811;51.900;10.734;2023-06-26T05:25:34;24.80;99.90
5578;DHT22;2811;51.900;10.734;2023-06-26T05:28:02;24.90;99.90
5578;DHT22;2811;51.900;10.734;2023-06-26T05:30:31;25.00;99.90
5578;DHT22;2811;51.900;10.734;2023-06-26T05:33:00;25.00;99.90
5578;DHT22;2811;51.900;10.734;2023-06-26T05:35:28;25.10;99.90
5578;DHT22;2811;51.900;10.734;2023-06-26T05:37:55;25.40;99.90
5578;DHT22;2811;51.900;10.734;2023-06-26T05:40:23;25.40;99.90
5578;DHT22;2811;51.900;10.734;2023-06-26T05:42:51;25.20;99.90
5578;DHT22;2811;51.900;10.734;2023-06-26T05:45:18;25.30;99.90
5578;DHT22;2811;51.900;10.734;2023-06-26T05:47:45;25.90;99.90
5578;DHT22;2811;51.900;10.734;2023-06-26T05:50:13;26.10;99.90
5578;DHT22;2811;51.900;10.734;2023-06-26T05:52:40;26.40;99.90
5578;DHT22;2811;51.900;10.734;2023-06-26T05:55:08;26.50;99.90
5578;DHT22;2811;51.900;10.734;2023-06-26T05:57:37;26.70;99.90
5578;DHT22;2811;51.900;10.734;2023-06-26T06:00:07;26.70;99.90
5578;DHT22;2811;51.900;10.734;2023-06-26T06:02:36;27.00;99.90
5578;DHT22;2811;51.900;10.734;2023-06-26T06:05:03;26.90;99.90
5578;DHT22;2811;51.900;10.734;2023-06-26T06:07:30;26.70;99.90
5578;DHT22;2811;51.900;10.734;2023-06-26T06:09:57;26.90;99.90
5578;DHT22;2811;51.900;10.734;2023-06-26T06:12:23;27.10;99.90
5578;DHT22;2811;51.900;10.734;2023-06-26T06:14:50;27.00;99.90
5578;DHT22;2811;51.900;10.734;2023-06-26T06:17:18;27.00;99.90
5578;DHT22;2811;51.900;10.734;2023-06-26T06:19:45;27.10;99.90
5578;DHT22;2811;51.900;10.734;2023-06-26T06:22:12;27.20;99.90
5578;DHT22;2811;51.900;10.734;2023-06-26T06:24:39;27.40;99.90
5578;DHT22;2811;51.900;10.734;2023-06-26T06:27:05;27.30;99.90
5578;DHT22;2811;51.900;10.734;2023-06-26T06:29:32;27.60;99.90
5578;DHT22;2811;51.900;10.734;2023-06-26T06:31:59;28.20;99.90
5578;DHT22;2811;51.900;10.734;2023-06-26T06:34:26;28.70;99.90
5578;DHT22;2811;51.900;10.734;2023-06-26T06:36:53;28.70;99.90
5578;DHT22;2811;51.900;10.734;2023-06-26T06:39:20;28.70;99.90
5578;DHT22;2811;51.900;10.734;2023-06-26T06:41:46;28.80;96.60
5578;DHT22;2811;51.900;10.734;2023-06-26T06:44:13;29.40;96.30
5578;DHT22;2811;51.900;10.734;2023-06-26T06:46:40;29.90;95.50
5578;DHT22;2811;51.900;10.734;2023-06-26T06:49:07;29.90;95.80
5578;DHT22;2811;51.900;10.734;2023-06-26T06:51:35;30.10;97.00
5578;DHT22;2811;51.900;10.734;2023-06-26T06:54:02;30.40;94.40
5578;DHT22;2811;51.900;10.734;2023-06-26T06:56:29;30.60;97.90
5578;DHT22;2811;51.900;10.734;2023-06-26T06:58:55;30.60;98.90
5578;DHT22;2811;51.900;10.734;2023-06-26T07:01:22;30.60;98.00
5578;DHT22;2811;51.900;10.734;2023-06-26T07:03:49;30.80;97.20
5578;DHT22;2811;51.900;10.734;2023-06-26T07:06:15;30.40;95.20
5578;DHT22;2811;51.900;10.734;2023-06-26T07:08:43;30.50;96.50
5578;DHT22;2811;51.900;10.734;2023-06-26T07:11:10;30.00;96.10
5578;DHT22;2811;51.900;10.734;2023-06-26T07:13:37;30.20;93.80
5578;DHT22;2811;51.900;10.734;2023-06-26T07:16:04;30.20;94.70
5578;DHT22;2811;51.900;10.734;2023-06-26T07:18:30;30.60;93.10
5578;DHT22;2811;51.900;10.734;2023-06-26T07:20:57;31.00;92.20
5578;DHT22;2811;51.900;10.734;2023-06-26T07:23:24;31.50;91.40
5578;DHT22;2811;51.900;10.734;2023-06-26T07:25:52;31.50;91.00
5578;DHT22;2811;51.900;10.734;2023-06-26T07:28:18;31.30;90.10
5578;DHT22;2811;51.900;10.734;2023-06-26T07:30:45;31.10;91.50
5578;DHT22;2811;51.900;10.734;2023-06-26T07:33:12;30.90;92.10
5578;DHT22;2811;51.900;10.734;2023-06-26T07:35:38;30.60;90.60
5578;DHT22;2811;51.900;10.734;2023-06-26T07:38:05;30.50;90.00
5578;DHT22;2811;51.900;10.734;2023-06-26T07:40:31;30.80;90.90
5578;DHT22;2811;51.900;10.734;2023-06-26T07:42:59;30.70;90.50
5578;DHT22;2811;51.900;10.734;2023-06-26T07:45:26;30.80;90.00
5578;DHT22;2811;51.900;10.734;2023-06-26T07:47:53;30.40;90.90
5578;DHT22;2811;51.900;10.734;2023-06-26T07:50:19;30.50;89.70
5578;DHT22;2811;51.900;10.734;2023-06-26T07:52:48;30.50;88.50
5578;DHT22;2811;51.900;10.734;2023-06-26T07:55:15;30.60;88.50
5578;DHT22;2811;51.900;10.734;2023-06-26T07:57:42;30.50;88.50
5578;DHT22;2811;51.900;10.734;2023-06-26T08:00:10;30.60;86.40
5578;DHT22;2811;51.900;10.734;2023-06-26T08:02:37;30.80;85.60
5578;DHT22;2811;51.900;10.734;2023-06-26T08:05:04;30.20;84.70
5578;DHT22;2811;51.900;10.734;2023-06-26T08:07:31;29.80;86.10
5578;DHT22;2811;51.900;10.734;2023-06-26T08:09:58;29.50;87.00
5578;DHT22;2811;51.900;10.734;2023-06-26T08:12:25;29.30;87.40
5578;DHT22;2811;51.900;10.734;2023-06-26T08:14:51;29.50;87.40
5578;DHT22;2811;51.900;10.734;2023-06-26T08:17:19;29.90;88.10
5578;DHT22;2811;51.900;10.734;2023-06-26T08:19:46;29.50;88.60
5578;DHT22;2811;51.900;10.734;2023-06-26T08:22:12;29.30;88.60
5578;DHT22;2811;51.900;10.734;2023-06-26T08:24:39;29.50;86.90
5578;DHT22;2811;51.900;10.734;2023-06-26T08:27:06;29.60;86.00
5578;DHT22;2811;51.900;10.734;2023-06-26T08:29:33;30.00;85.40
5578;DHT22;2811;51.900;10.734;2023-06-26T08:32:00;30.30;86.10
5578;DHT22;2811;51.900;10.734;2023-06-26T08:34:29;30.80;86.60
5578;DHT22;2811;51.900;10.734;2023-06-26T08:36:55;31.20;80.30
5578;DHT22;2811;51.900;10.734;2023-06-26T08:39:22;31.30;79.40
5578;DHT22;2811;51.900;10.734;2023-06-26T08:41:48;31.50;79.40
5578;DHT22;2811;51.900;10.734;2023-06-26T08:44:15;31.20;78.90
5578;DHT22;2811;51.900;10.734;2023-06-26T08:46:42;31.40;79.00
5578;DHT22;2811;51.900;10.734;2023-06-26T08:49:14;31.10;78.50
5578;DHT22;2811;51.900;10.734;2023-06-26T08:51:48;31.10;80.10
5578;DHT22;2811;51.900;10.734;2023-06-26T08:54:17;31.30;79.70
5578;DHT22;2811;51.900;10.734;2023-06-26T08:56:49;31.50;79.60
5578;DHT22;2811;51.900;10.734;2023-06-26T08:59:16;31.70;79.10
5578;DHT22;2811;51.900;10.734;2023-06-26T09:01:43;31.90;78.30
5578;DHT22;2811;51.900;10.734;2023-06-26T09:04:09;31.70;79.50
5578;DHT22;2811;51.900;10.734;2023-06-26T09:06:36;31.80;80.20
5578;DHT22;2811;51.900;10.734;2023-06-26T09:09:06;31.90;77.60
5578;DHT22;2811;51.900;10.734;2023-06-26T09:11:33;31.90;79.90
5578;DHT22;2811;51.900;10.734;2023-06-26T09:13:59;32.20;80.50
5578;DHT22;2811;51.900;10.734;2023-06-26T09:16:26;32.20;79.80
5578;DHT22;2811;51.900;10.734;2023-06-26T09:18:53;32.30;80.10
5578;DHT22;2811;51.900;10.734;2023-06-26T09:21:21;32.60;78.20
5578;DHT22;2811;51.900;10.734;2023-06-26T09:23:50;32.80;78.00
5578;DHT22;2811;51.900;10.734;2023-06-26T09:26:18;32.90;77.80
5578;DHT22;2811;51.900;10.734;2023-06-26T09:28:44;32.60;78.60
5578;DHT22;2811;51.900;10.734;2023-06-26T09:31:12;32.40;76.60
5578;DHT22;2811;51.900;10.734;2023-06-26T09:33:39;32.70;78.60
5578;DHT22;2811;51.900;10.734;2023-06-26T09:36:09;32.70;76.50
5578;DHT22;2811;51.900;10.734;2023-06-26T09:38:44;32.60;76.20
5578;DHT22;2811;51.900;10.734;2023-06-26T09:41:11;32.60;77.20
5578;DHT22;2811;51.900;10.734;2023-06-26T09:43:46;32.90;77.40
5578;DHT22;2811;51.900;10.734;2023-06-26T09:46:15;32.60;76.80
5578;DHT22;2811;51.900;10.734;2023-06-26T09:48:42;32.70;77.00
5578;DHT22;2811;51.900;10.734;2023-06-26T09:51:09;32.40;77.50
5578;DHT22;2811;51.900;10.734;2023-06-26T09:53:36;32.70;76.00
5578;DHT22;2811;51.900;10.734;2023-06-26T09:56:05;32.10;74.70
5578;DHT22;2811;51.900;10.734;2023-06-26T09:58:32;31.70;74.20
5578;DHT22;2811;51.900;10.734;2023-06-26T10:01:01;31.80;77.00
5578;DHT22;2811;51.900;10.734;2023-06-26T10:03:28;32.30;75.60
5578;DHT22;2811;51.900;10.734;2023-06-26T10:05:55;32.60;72.80
5578;DHT22;2811;51.900;10.734;2023-06-26T10:08:22;32.80;72.20
5578;DHT22;2811;51.900;10.734;2023-06-26T10:10:49;32.60;72.60
5578;DHT22;2811;51.900;10.734;2023-06-26T10:13:22;32.90;74.00
5578;DHT22;2811;51.900;10.734;2023-06-26T10:15:50;32.70;71.60
5578;DHT22;2811;51.900;10.734;2023-06-26T10:18:19;32.80;73.60
5578;DHT22;2811;51.900;10.734;2023-06-26T10:20:48;33.20;74.70
5578;DHT22;2811;51.900;10.734;2023-06-26T10:23:19;33.60;75.20
5578;DHT22;2811;51.900;10.734;2023-06-26T10:25:48;33.60;75.10
5578;DHT22;2811;51.900;10.734;2023-06-26T10:28:19;33.60;73.10
5578;DHT22;2811;51.900;10.734;2023-06-26T10:30:50;33.50;71.80
5578;DHT22;2811;51.900;10.734;2023-06-26T10:33:19;33.40;73.30
5578;DHT22;2811;51.900;10.734;2023-06-26T10:35:46;33.50;73.30
5578;DHT22;2811;51.900;10.734;2023-06-26T10:38:13;33.50;73.70
5578;DHT22;2811;51.900;10.734;2023-06-26T10:40:40;33.70;74.20
5578;DHT22;2811;51.900;10.734;2023-06-26T10:43:09;33.80;74.80
5578;DHT22;2811;51.900;10.734;2023-06-26T10:45:36;33.80;75.00
5578;DHT22;2811;51.900;10.734;2023-06-26T10:48:04;34.00;74.60
5578;DHT22;2811;51.900;10.734;2023-06-26T10:50:32;34.00;77.10
5578;DHT22;2811;51.900;10.734;2023-06-26T10:53:08;33.60;82.00
5578;DHT22;2811;51.900;10.734;2023-06-26T10:55:35;33.20;85.50
5578;DHT22;2811;51.900;10.734;2023-06-26T10:58:02;32.10;87.20
5578;DHT22;2811;51.900;10.734;2023-06-26T11:00:29;31.30;90.00
5578;DHT22;2811;51.900;10.734;2023-06-26T11:02:55;30.70;91.10
5578;DHT22;2811;51.900;10.734;2023-06-26T11:05:26;30.30;92.50
5578;DHT22;2811;51.900;10.734;2023-06-26T11:08:05;30.10;94.00
5578;DHT22;2811;51.900;10.734;2023-06-26T11:10:53;29.90;94.50
5578;DHT22;2811;51.900;10.734;2023-06-26T11:13:21;29.60;95.30
5578;DHT22;2811;51.900;10.734;2023-06-26T11:15:49;29.40;96.10
5578;DHT22;2811;51.900;10.734;2023-06-26T11:18:16;29.20;97.10
5578;DHT22;2811;51.900;10.734;2023-06-26T11:20:43;29.30;97.70
5578;DHT22;2811;51.900;10.734;2023-06-26T11:23:12;29.50;98.00
5578;DHT22;2811;51.900;10.734;2023-06-26T11:25:39;29.60;97.40
5578;DHT22;2811;51.900;10.734;2023-06-26T11:28:09;30.00;97.70
5578;DHT22;2811;51.900;10.734;2023-06-26T11:30:36;30.20;96.80
5578;DHT22;2811;51.900;10.734;2023-06-26T11:33:05;30.00;96.60
5578;DHT22;2811;51.900;10.734;2023-06-26T11:35:32;29.70;98.10
5578;DHT22;2811;51.900;10.734;2023-06-26T11:38:00;29.40;98.20
5578;DHT22;2811;51.900;10.734;2023-06-26T11:40:32;29.10;99.00
5578;DHT22;2811;51.900;10.734;2023-06-26T11:42:59;28.80;99.60
5578;DHT22;2811;51.900;10.734;2023-06-26T11:45:28;28.70;99.90
5578;DHT22;2811;51.900;10.734;2023-06-26T11:47:54;28.50;99.90
5578;DHT22;2811;51.900;10.734;2023-06-26T11:50:22;28.80;99.90
5578;DHT22;2811;51.900;10.734;2023-06-26T11:52:53;28.90;99.90
5578;DHT22;2811;51.900;10.734;2023-06-26T11:55:20;28.50;99.90
5578;DHT22;2811;51.900;10.734;2023-06-26T11:57:49;28.00;99.90
5578;DHT22;2811;51.900;10.734;2023-06-26T12:00:17;27.80;99.90
5578;DHT22;2811;51.900;10.734;2023-06-26T12:02:44;27.70;99.90
5578;DHT22;2811;51.900;10.734;2023-06-26T12:05:11;27.80;99.90
5578;DHT22;2811;51.900;10.734;2023-06-26T12:07:39;27.60;99.90
5578;DHT22;2811;51.900;10.734;2023-06-26T12:10:07;27.60;99.90
5578;DHT22;2811;51.900;10.734;2023-06-26T12:12:34;27.30;99.90
5578;DHT22;2811;51.900;10.734;2023-06-26T12:15:03;27.00;99.90
5578;DHT22;2811;51.900;10.734;2023-06-26T12:17:30;26.50;99.90
5578;DHT22;2811;51.900;10.734;2023-06-26T12:19:56;26.20;99.90
5578;DHT22;2811;51.900;10.734;2023-06-26T12:22:23;25.90;99.90
5578;DHT22;2811;51.900;10.734;2023-06-26T12:24:50;26.00;99.90
5578;DHT22;2811;51.900;10.734;2023-06-26T12:27:18;26.10;99.90
5578;DHT22;2811;51.900;10.734;2023-06-26T12:29:50;26.20;99.90
5578;DHT22;2811;51.900;10.734;2023-06-26T12:32:19;26.10;99.90
5578;DHT22;2811;51.900;10.734;2023-06-26T12:34:48;26.00;99.90
5578;DHT22;2811;51.900;10.734;2023-06-26T12:37:16;25.80;99.90
5578;DHT22;2811;51.900;10.734;2023-06-26T12:39:48;25.60;99.90
5578;DHT22;2811;51.900;10.734;2023-06-26T12:42:16;25.30;99.90
5578;DHT22;2811;51.900;10.734;2023-06-26T12:44:43;25.00;99.90
5578;DHT22;2811;51.900;10.734;2023-06-26T12:47:10;24.80;99.90
5578;DHT22;2811;51.900;10.734;2023-06-26T12:49:41;24.70;99.90
5578;DHT22;2811;51.900;10.734;2023-06-26T12:52:11;24.90;99.90
5578;DHT22;2811;51.900;10.734;2023-06-26T12:54:39;25.50;99.90
5578;DHT22;2811;51.900;10.734;2023-06-26T12:57:06;25.70;99.90
5578;DHT22;2811;51.900;10.734;2023-06-26T12:59:35;26.20;99.90
5578;DHT22;2811;51.900;10.734;2023-06-26T13:02:02;26.80;99.90
5578;DHT22;2811;51.900;10.734;2023-06-26T13:04:29;27.30;99.90
5578;DHT22;2811;51.900;10.734;2023-06-26T13:06:57;27.10;99.90
5578;DHT22;2811;51.900;10.734;2023-06-26T13:09:24;26.70;99.90
5578;DHT22;2811;51.900;10.734;2023-06-26T13:11:51;26.20;99.90
5578;DHT22;2811;51.900;10.734;2023-06-26T13:14:18;25.90;99.90
5578;DHT22;2811;51.900;10.734;2023-06-26T13:16:45;25.70;99.90
5578;DHT22;2811;51.900;10.734;2023-06-26T13:19:11;25.50;99.90
5578;DHT22;2811;51.900;10.734;2023-06-26T13:21:38;25.30;99.90
5578;DHT22;2811;51.900;10.734;2023-06-26T13:24:06;25.40;99.90
5578;DHT22;2811;51.900;10.734;2023-06-26T13:26:33;25.60;99.90
5578;DHT22;2811;51.900;10.734;2023-06-26T13:29:00;25.80;99.90
5578;DHT22;2811;51.900;10.734;2023-06-26T13:31:27;26.00;99.90
5578;DHT22;2811;51.900;10.734;2023-06-26T13:33:56;26.10;99.90
5578;DHT22;2811;51.900;10.734;2023-06-26T13:36:23;26.20;99.90
5578;DHT22;2811;51.900;10.734;2023-06-26T13:38:50;26.40;99.90
5578;DHT22;2811;51.900;10.734;2023-06-26T13:41:22;26.40;99.90
5578;DHT22;2811;51.900;10.734;2023-06-26T13:43:48;26.10;99.90
5578;DHT22;2811;51.900;10.734;2023-06-26T13:46:15;26.00;99.90
5578;DHT22;2811;51.900;10.734;2023-06-26T13:48:42;25.90;99.90
5578;DHT22;2811;51.900;10.734;2023-06-26T13:51:09;26.20;99.90
5578;DHT22;2811;51.900;10.734;2023-06-26T13:53:36;26.40;99.90
5578;DHT22;2811;51.900;10.734;2023-06-26T13:56:02;26.40;99.90
5578;DHT22;2811;51.900;10.734;2023-06-26T13:58:31;26.30;99.90
5578;DHT22;2811;51.900;10.734;2023-06-26T14:00:58;26.30;99.90
5578;DHT22;2811;51.900;10.734;2023-06-26T14:03:26;26.50;99.90
5578;DHT22;2811;51.900;10.734;2023-06-26T14:05:53;26.50;99.90
5578;DHT22;2811;51.900;10.734;2023-06-26T14:08:19;26.80;99.90
5578;DHT22;2811;51.900;10.734;2023-06-26T14:10:46;27.00;99.90
5578;DHT22;2811;51.900;10.734;2023-06-26T14:13:13;26.90;99.90
5578;DHT22;2811;51.900;10.734;2023-06-26T14:15:42;26.40;99.90
5578;DHT22;2811;51.900;10.734;2023-06-26T14:18:09;25.60;99.90
5578;DHT22;2811;51.900;10.734;2023-06-26T14:20:36;25.20;99.90
5578;DHT22;2811;51.900;10.734;2023-06-26T14:23:03;25.10;99.90
5578;DHT22;2811;51.900;10.734;2023-06-26T14:25:29;25.20;99.90
5578;DHT22;2811;51.900;10.734;2023-06-26T14:27:57;25.30;99.90
5578;DHT22;2811;51.900;10.734;2023-06-26T14:30:24;25.00;99.90
5578;DHT22;2811;51.900;10.734;2023-06-26T14:32:52;24.80;99.90
5578;DHT22;2811;51.900;10.734;2023-06-26T14:35:19;24.90;99.90
5578;DHT22;2811;51.900;10.734;2023-06-26T14:37:47;24.90;99.90
5578;DHT22;2811;51.900;10.734;2023-06-26T14:40:14;24.80;99.90
5578;DHT22;2811;51.900;10.734;2023-06-26T14:42:41;25.00;99.90
5578;DHT22;2811;51.900;10.734;2023-06-26T14:45:09;25.00;99.90
5578;DHT22;2811;51.900;10.734;2023-06-26T14:47:36;25.10;99.90
5578;DHT22;2811;51.900;10.734;2023-06-26T14:50:05;25.00;99.90
5578;DHT22;2811;51.900;10.734;2023-06-26T14:52:33;24.80;99.90
5578;DHT22;2811;51.900;10.734;2023-06-26T14:54:59;24.70;99.90
5578;DHT22;2811;51.900;10.734;2023-06-26T14:57:26;24.80;99.90
5578;DHT22;2811;51.900;10.734;2023-06-26T14:59:52;25.00;99.90
5578;DHT22;2811;51.900;10.734;2023-06-26T15:02:19;25.20;99.90
5578;DHT22;2811;51.900;10.734;2023-06-26T15:04:46;25.60;99.90
5578;DHT22;2811;51.900;10.734;2023-06-26T15:07:14;25.90;99.90
5578;DHT22;2811;51.900;10.734;2023-06-26T15:09:41;26.20;99.90
5578;DHT22;2811;51.900;10.734;2023-06-26T15:12:08;26.50;99.90
5578;DHT22;2811;51.900;10.734;2023-06-26T15:14:34;26.70;99.90
5578;DHT22;2811;51.900;10.734;2023-06-26T15:17:01;26.50;99.90
5578;DHT22;2811;51.900;10.734;2023-06-26T15:19:28;26.30;99.90
5578;DHT22;2811;51.900;10.734;2023-06-26T15:21:54;26.20;99.90
5578;DHT22;2811;51.900;10.734;2023-06-26T15:24:22;26.20;99.90
5578;DHT22;2811;51.900;10.734;2023-06-26T15:26:49;26.40;99.90
5578;DHT22;2811;51.900;10.734;2023-06-26T15:29:15;26.70;99.90
5578;DHT22;2811;51.900;10.734;2023-06-26T15:31:43;26.90;99.90
5578;DHT22;2811;51.900;10.734;2023-06-26T15:34:09;27.00;99.90
5578;DHT22;2811;51.900;10.734;2023-06-26T15:36:36;27.20;97.70
5578;DHT22;2811;51.900;10.734;2023-06-26T15:39:03;27.30;97.60
5578;DHT22;2811;51.900;10.734;2023-06-26T15:41:31;27.70;97.50
5578;DHT22;2811;51.900;10.734;2023-06-26T15:43:57;27.90;96.00
5578;DHT22;2811;51.900;10.734;2023-06-26T15:46:24;28.10;94.90